Time;durP1;ratioP1;P1;durP2;ratioP2;P2;SDS_P1;SDS_P2;PMS_P1;PMS_P2;Temp;Humidity;BMP_temperature;BMP_pressure;BME280_temperature;BME280_humidity;BME280_pressure;Samples;Min_cycle;Max_cycle;Signal;HPM_P1;HPM_P2
2023/06/21 00:01:32;;;;;;;17.27;15.60;;;537.70;2406.40;;;;;;5058364;28;20025;-80
2023/06/21 00:03:59;;;;;;;17.77;16.08;;;537.70;2406.40;;;;;;5058764;28;20032;-80
2023/06/21 00:06:28;;;;;;;21.52;17.65;;;537.70;2406.40;;;;;;5058418;28;20056;-79
2023/06/21 00:08:55;;;;;;;26.33;18.02;;;537.60;2406.40;;;;;;5059603;28;20032;-80
2023/06/21 00:11:21;;;;;;;20.23;18.30;;;512.90;2380.80;;;;;;5058576;28;20357;-79
2023/06/21 00:13:47;;;;;;;19.77;17.63;;;512.90;2380.80;;;;;;5058595;28;20025;-79
2023/06/21 00:16:14;;;;;;;19.27;17.23;;;512.90;2380.80;;;;;;5058079;28;20029;-78
2023/06/21 00:18:40;;;;;;;17.77;16.00;;;512.90;2380.80;;;;;;5054922;28;20025;-78
2023/06/21 00:21:06;;;;;;;20.25;16.05;;;512.90;2380.80;;;;;;5038502;28;20025;-78
2023/06/21 00:23:32;;;;;;;18.98;15.57;;;512.90;2380.80;;;;;;5038158;28;20124;-78
2023/06/21 00:25:58;;;;;;;24.20;16.92;;;512.90;2380.80;;;;;;5039597;28;20060;-77
2023/06/21 00:28:23;;;;;;;18.77;16.98;;;512.90;2380.80;;;;;;5037962;28;20396;-78
2023/06/21 00:30:49;;;;;;;19.50;17.48;;;512.80;2380.80;;;;;;5038368;28;20029;-79
2023/06/21 00:33:16;;;;;;;18.88;16.70;;;512.90;2380.80;;;;;;5038245;28;20053;-80
2023/06/21 00:35:42;;;;;;;21.05;16.63;;;512.90;2380.80;;;;;;5037956;28;20034;-78
2023/06/21 00:38:12;;;;;;;19.35;16.50;;;512.90;2380.80;;;;;;5041690;28;20037;-79
2023/06/21 00:40:39;;;;;;;20.77;18.40;;;512.80;2380.80;;;;;;5058444;28;20021;-79
2023/06/21 00:43:05;;;;;;;21.55;19.00;;;512.70;2380.80;;;;;;5058129;28;20154;-79
2023/06/21 00:45:39;;;;;;;18.50;16.48;;;512.60;2380.80;;;;;;5058409;28;20033;-81
2023/06/21 00:48:05;;;;;;;17.75;15.90;;;512.70;2380.80;;;;;;5056728;28;20033;-82
2023/06/21 00:50:31;;;;;;;22.38;16.85;;;512.30;2380.80;;;;;;5055410;28;20111;-83
2023/06/21 00:52:59;;;;;;;18.90;16.80;;;512.60;2380.80;;;;;;5056611;28;20052;-83
2023/06/21 00:55:25;;;;;;;19.60;17.50;;;512.50;2380.80;;;;;;5055573;28;20029;-83
2023/06/21 00:57:51;;;;;;;18.65;16.05;;;512.40;2380.80;;;;;;5051488;28;20026;-83
2023/06/21 01:00:24;;;;;;;19.10;16.92;;;512.30;2380.80;;;;;;5035313;28;20466;-83
2023/06/21 01:02:53;;;;;;;19.40;17.50;;;512.40;2380.80;;;;;;5035513;28;20465;-84
2023/06/21 01:05:21;;;;;;;18.83;16.92;;;512.50;2380.80;;;;;;5034626;28;20022;-83
2023/06/21 01:08:00;;;;;;;19.52;17.40;;;512.60;2380.80;;;;;;5036680;28;20035;-83
2023/06/21 01:10:32;;;;;;;19.95;17.55;;;512.60;2380.80;;;;;;5035014;28;20037;-82
2023/06/21 01:13:25;;;;;;;20.15;18.00;;;512.60;2380.80;;;;;;5038428;28;20040;-83
2023/06/21 01:16:06;;;;;;;18.50;16.48;;;512.60;2380.80;;;;;;5047697;28;20052;-83
2023/06/21 01:18:34;;;;;;;20.90;17.27;;;512.60;2380.80;;;;;;5048310;28;20389;-82
2023/06/21 01:21:03;;;;;;;18.70;16.75;;;512.60;2380.80;;;;;;5056196;28;20858;-83
2023/06/21 01:23:51;;;;;;;19.50;17.50;;;512.50;2380.80;;;;;;5059891;28;20009;-83
2023/06/21 01:26:45;;;;;;;19.50;16.90;;;512.20;2380.80;;;;;;5059641;28;20009;-82
2023/06/21 01:29:14;;;;;;;18.35;15.65;;;512.50;2380.80;;;;;;5040775;28;20400;-83
2023/06/21 01:31:42;;;;;;;18.55;16.55;;;512.30;2380.80;;;;;;5054632;28;20033;-84
2023/06/21 01:34:12;;;;;;;19.48;17.45;;;512.50;2380.80;;;;;;5056033;28;20071;-83
2023/06/21 01:36:39;;;;;;;19.25;16.77;;;512.50;2380.80;;;;;;5054837;28;20029;-82
2023/06/21 01:39:09;;;;;;;18.00;16.15;;;512.40;2380.80;;;;;;5055762;28;20387;-84
2023/06/21 01:41:36;;;;;;;18.45;16.65;;;512.40;2380.80;;;;;;5054790;28;20021;-83
2023/06/21 01:44:09;;;;;;;18.27;16.40;;;512.50;2380.80;;;;;;5054526;28;20083;-82
2023/06/21 01:46:35;;;;;;;19.17;17.02;;;512.30;2380.80;;;;;;5054149;28;20032;-84
2023/06/21 01:49:06;;;;;;;17.85;16.02;;;512.30;2380.80;;;;;;5055761;28;20032;-85
2023/06/21 01:51:34;;;;;;;20.63;17.00;;;512.40;2380.80;;;;;;5054858;28;20033;-82
2023/06/21 01:54:00;;;;;;;23.38;16.92;;;512.40;2380.80;;;;;;5054579;28;20460;-83
2023/06/21 01:56:27;;;;;;;19.05;17.08;;;512.30;2380.80;;;;;;5054630;28;20032;-84
2023/06/21 01:58:52;;;;;;;18.50;16.42;;;512.30;2380.80;;;;;;5054311;28;20035;-84
2023/06/21 02:01:19;;;;;;;19.98;17.13;;;512.20;2380.80;;;;;;5076158;28;20021;-85
2023/06/21 02:03:52;;;;;;;18.58;16.70;;;512.30;2380.80;;;;;;5064441;28;20025;-83
2023/06/21 02:06:28;;;;;;;21.50;18.25;;;512.20;2380.80;;;;;;5058248;28;20099;-84
2023/06/21 02:08:54;;;;;;;18.90;15.73;;;512.00;2380.80;;;;;;5054534;28;20036;-84
2023/06/21 02:11:22;;;;;;;18.77;16.80;;;512.10;2380.80;;;;;;5054345;28;20037;-84
2023/06/21 02:13:48;;;;;;;19.95;18.05;;;512.20;2380.80;;;;;;5055258;28;20372;-85
2023/06/21 02:16:15;;;;;;;17.58;15.77;;;512.10;2380.80;;;;;;5054076;28;20021;-86
2023/06/21 02:18:41;;;;;;;20.95;17.30;;;512.20;2380.80;;;;;;5054315;28;20029;-85
2023/06/21 02:21:08;;;;;;;19.50;16.05;;;512.00;2380.80;;;;;;5055298;28;20151;-83
2023/06/21 02:23:34;;;;;;;19.48;17.65;;;512.20;2380.80;;;;;;5055270;28;20021;-84
2023/06/21 02:26:00;;;;;;;19.98;17.70;;;512.00;2380.80;;;;;;5053596;28;20370;-84
2023/06/21 02:28:25;;;;;;;21.60;17.65;;;512.00;2380.80;;;;;;5053731;28;20051;-83
2023/06/21 02:30:51;;;;;;;19.15;17.25;;;512.00;2380.80;;;;;;5053797;28;20040;-85
2023/06/21 02:33:17;;;;;;;21.88;18.00;;;512.10;2380.80;;;;;;5053729;28;20052;-84
2023/06/21 02:35:43;;;;;;;20.25;16.63;;;512.10;2380.80;;;;;;5053724;28;20031;-84
2023/06/21 02:38:09;;;;;;;20.20;18.20;;;512.10;2380.80;;;;;;5053708;28;20032;-83
2023/06/21 02:40:35;;;;;;;19.38;17.17;;;512.10;2380.80;;;;;;5053927;28;20032;-85
2023/06/21 02:43:00;;;;;;;20.40;18.33;;;487.30;2380.80;;;;;;5054698;28;20032;-83
2023/06/21 02:45:26;;;;;;;20.75;17.88;;;487.30;2380.80;;;;;;5053622;28;20369;-83
2023/06/21 02:47:52;;;;;;;19.67;17.67;;;487.30;2380.80;;;;;;5053206;28;20052;-82
2023/06/21 02:50:18;;;;;;;20.73;17.30;;;487.10;2380.80;;;;;;5053082;28;20032;-86
2023/06/21 02:52:44;;;;;;;19.50;17.60;;;487.00;2380.80;;;;;;5053199;28;20025;-83
2023/06/21 02:55:10;;;;;;;24.10;18.33;;;487.10;2380.80;;;;;;5044289;28;20021;-80
2023/06/21 02:57:36;;;;;;;20.55;17.95;;;487.10;2380.80;;;;;;5033344;28;20365;-83
2023/06/21 03:00:17;;;;;;;20.08;18.08;;;487.10;2380.80;;;;;;5033412;28;20025;-84
2023/06/21 03:02:44;;;;;;;19.65;17.63;;;487.20;2380.80;;;;;;5033118;28;20033;-86
2023/06/21 03:05:13;;;;;;;21.40;17.77;;;487.20;2380.80;;;;;;5032834;28;20068;-84
2023/06/21 03:07:43;;;;;;;19.77;17.88;;;487.20;2380.80;;;;;;5033360;28;20030;-84
2023/06/21 03:10:14;;;;;;;18.77;16.88;;;487.20;2380.80;;;;;;5033035;28;20025;-84
2023/06/21 03:12:41;;;;;;;20.58;17.15;;;487.10;2380.80;;;;;;5032380;28;20052;-83
2023/06/21 03:15:08;;;;;;;18.67;16.73;;;487.20;2380.80;;;;;;5033394;28;20025;-85
2023/06/21 03:17:35;;;;;;;21.85;19.58;;;487.30;2380.80;;;;;;5032905;28;20030;-87
2023/06/21 03:20:09;;;;;;;24.20;18.25;;;487.20;2380.80;;;;;;5032943;28;20025;-84
2023/06/21 03:22:35;;;;;;;20.65;18.50;;;487.00;2380.80;;;;;;5033037;28;20029;-84
2023/06/21 03:25:01;;;;;;;20.38;18.23;;;487.00;2380.80;;;;;;5032857;28;20088;-83
2023/06/21 03:27:27;;;;;;;19.42;17.33;;;486.90;2380.80;;;;;;5032848;28;20409;-84
2023/06/21 03:29:53;;;;;;;18.27;16.52;;;487.00;2380.80;;;;;;5032941;28;20079;-83
2023/06/21 03:32:19;;;;;;;20.48;17.63;;;487.00;2380.80;;;;;;5032712;28;20037;-82
2023/06/21 03:34:46;;;;;;;19.20;17.17;;;486.90;2380.80;;;;;;5034504;28;20079;-85
2023/06/21 03:37:12;;;;;;;19.90;16.77;;;487.00;2380.80;;;;;;5033506;28;20048;-83
2023/06/21 03:39:38;;;;;;;19.55;16.15;;;487.00;2380.80;;;;;;5032717;28;20087;-84
2023/06/21 03:42:05;;;;;;;21.65;16.90;;;487.10;2380.80;;;;;;5032684;28;20373;-82
2023/06/21 03:44:30;;;;;;;20.67;18.25;;;487.00;2380.80;;;;;;5032450;28;20057;-82
2023/06/21 03:46:58;;;;;;;18.17;16.17;;;487.00;2380.80;;;;;;5032544;28;20057;-83
2023/06/21 03:49:24;;;;;;;19.98;17.30;;;487.00;2380.80;;;;;;5033900;28;20029;-84
2023/06/21 03:51:50;;;;;;;17.75;15.98;;;487.10;2380.80;;;;;;5033639;28;20117;-85
2023/06/21 03:54:15;;;;;;;18.08;16.10;;;486.80;2380.80;;;;;;5032665;28;20029;-84
2023/06/21 03:56:41;;;;;;;20.75;15.80;;;486.90;2380.80;;;;;;5032802;28;20022;-83
2023/06/21 03:59:07;;;;;;;17.60;15.75;;;487.00;2380.80;;;;;;5032594;28;20503;-84
2023/06/21 04:01:33;;;;;;;19.27;17.23;;;487.10;2380.80;;;;;;5032558;28;20026;-82
2023/06/21 04:03:59;;;;;;;21.23;17.52;;;487.20;2380.80;;;;;;5032868;28;20025;-84
2023/06/21 04:06:25;;;;;;;19.55;15.98;;;487.10;2380.80;;;;;;5032049;28;20049;-83
2023/06/21 04:08:51;;;;;;;18.15;16.25;;;487.00;2380.80;;;;;;5032454;28;20041;-83
2023/06/21 04:11:17;;;;;;;19.65;17.13;;;487.10;2380.80;;;;;;5032614;28;20053;-85
2023/06/21 04:13:43;;;;;;;23.35;16.50;;;487.20;2380.80;;;;;;5032284;28;20466;-82
2023/06/21 04:16:09;;;;;;;19.65;17.48;;;487.30;2380.80;;;;;;5032550;28;20029;-84
2023/06/21 04:18:35;;;;;;;19.15;16.90;;;487.30;2380.80;;;;;;5032758;28;20029;-84
2023/06/21 04:21:01;;;;;;;19.63;17.00;;;487.30;2380.80;;;;;;5032180;28;20052;-82
2023/06/21 04:23:27;;;;;;;19.52;17.42;;;512.00;2380.80;;;;;;5034306;28;20053;-82
2023/06/21 04:25:53;;;;;;;18.42;16.60;;;487.30;2380.80;;;;;;5037383;28;20026;-82
2023/06/21 04:28:24;;;;;;;18.70;16.80;;;512.10;2380.80;;;;;;5035882;28;20029;-83
2023/06/21 04:30:51;;;;;;;20.00;17.77;;;512.20;2380.80;;;;;;5035964;28;20041;-83
2023/06/21 04:33:17;;;;;;;21.15;17.10;;;512.30;2380.80;;;;;;5036928;28;20508;-84
2023/06/21 04:35:43;;;;;;;21.38;17.40;;;512.40;2380.80;;;;;;5036036;28;20029;-84
2023/06/21 04:38:08;;;;;;;19.45;17.13;;;512.40;2380.80;;;;;;5035848;28;20049;-84
2023/06/21 04:40:34;;;;;;;19.65;17.35;;;512.40;2380.80;;;;;;5036803;28;20026;-84
2023/06/21 04:43:02;;;;;;;20.02;17.48;;;512.30;2380.80;;;;;;5035880;28;20025;-85
2023/06/21 04:45:29;;;;;;;18.80;16.85;;;512.50;2380.80;;;;;;5035931;28;20029;-83
2023/06/21 04:47:57;;;;;;;19.85;17.75;;;512.60;2380.80;;;;;;5035956;28;20034;-83
2023/06/21 04:50:24;;;;;;;20.02;17.75;;;512.60;2380.80;;;;;;5035655;28;20040;-82
2023/06/21 04:52:50;;;;;;;22.25;18.27;;;512.60;2380.80;;;;;;5036808;28;20032;-83
2023/06/21 04:55:20;;;;;;;22.95;17.73;;;512.60;2380.80;;;;;;5049537;28;20014;-83
2023/06/21 04:57:48;;;;;;;25.23;18.90;;;512.80;2380.80;;;;;;5051118;28;20056;-82
2023/06/21 05:00:14;;;;;;;20.17;18.00;;;512.90;2380.80;;;;;;5041860;28;20022;-82
2023/06/21 05:02:40;;;;;;;21.48;19.30;;;512.90;2380.80;;;;;;5038570;28;20048;-83
2023/06/21 05:05:06;;;;;;;22.98;18.83;;;537.70;2406.40;;;;;;5035349;28;20458;-84
2023/06/21 05:07:32;;;;;;;20.70;18.23;;;537.60;2406.40;;;;;;5034767;28;20397;-82
2023/06/21 05:09:57;;;;;;;20.77;17.58;;;512.90;2380.80;;;;;;5034814;28;20253;-82
2023/06/21 05:12:23;;;;;;;21.83;17.70;;;512.90;2380.80;;;;;;5035208;28;20033;-83
2023/06/21 05:14:49;;;;;;;20.42;18.30;;;537.60;2406.40;;;;;;5036382;28;20029;-83
2023/06/21 05:17:15;;;;;;;21.20;18.40;;;512.90;2380.80;;;;;;5036296;28;20026;-83
2023/06/21 05:19:42;;;;;;;19.60;17.50;;;512.90;2380.80;;;;;;5035066;28;20037;-84
2023/06/21 05:22:08;;;;;;;19.90;17.75;;;537.70;2406.40;;;;;;5035107;28;20366;-84
2023/06/21 05:24:34;;;;;;;19.65;17.67;;;537.70;2406.40;;;;;;5034675;28;20036;-83
2023/06/21 05:26:59;;;;;;;21.15;16.77;;;537.70;2406.40;;;;;;5034978;28;20033;-83
2023/06/21 05:29:25;;;;;;;20.30;18.30;;;537.70;2406.40;;;;;;5035089;28;20379;-85
2023/06/21 05:31:51;;;;;;;21.48;17.92;;;537.90;2406.40;;;;;;5035093;28;20052;-84
2023/06/21 05:34:17;;;;;;;18.85;16.95;;;538.00;2406.40;;;;;;5034092;28;20052;-83
2023/06/21 05:36:43;;;;;;;18.80;16.60;;;538.00;2406.40;;;;;;5034657;28;20060;-85
2023/06/21 05:39:09;;;;;;;19.02;16.65;;;537.90;2406.40;;;;;;5035995;28;20087;-83
2023/06/21 05:41:34;;;;;;;19.58;17.38;;;538.00;2406.40;;;;;;5034846;28;20071;-83
2023/06/21 05:44:00;;;;;;;21.30;16.95;;;538.10;2406.40;;;;;;5034437;28;20032;-84
2023/06/21 05:46:26;;;;;;;20.73;16.90;;;538.20;2406.40;;;;;;5034829;28;20025;-84
2023/06/21 05:48:51;;;;;;;22.08;18.58;;;538.40;2406.40;;;;;;5034439;28;20029;-84
2023/06/21 05:51:17;;;;;;;26.23;17.58;;;538.40;2406.40;;;;;;5053919;28;20033;-83
2023/06/21 05:53:43;;;;;;;26.65;18.13;;;563.20;2432.00;;;;;;5054529;28;20029;-84
2023/06/21 05:56:09;;;;;;;21.65;18.05;;;563.30;2432.00;;;;;;5054620;28;20032;-83
2023/06/21 05:58:35;;;;;;;18.83;16.92;;;563.40;2432.00;;;;;;5054429;28;20033;-85
2023/06/21 06:01:01;;;;;;;20.83;18.63;;;563.40;2432.00;;;;;;5055394;28;20117;-83
2023/06/21 06:03:26;;;;;;;21.58;17.60;;;563.30;2432.00;;;;;;5054210;28;20029;-84
2023/06/21 06:05:53;;;;;;;19.27;17.27;;;563.50;2432.00;;;;;;5053739;28;20052;-83
2023/06/21 06:08:18;;;;;;;16.85;15.18;;;563.70;2432.00;;;;;;5054144;28;20162;-84
2023/06/21 06:10:44;;;;;;;17.30;15.45;;;563.90;2432.00;;;;;;5054311;28;20097;-84
2023/06/21 06:13:10;;;;;;;17.92;16.02;;;564.00;2432.00;;;;;;5053842;28;20029;-83
2023/06/21 06:15:36;;;;;;;19.60;16.25;;;564.10;2432.00;;;;;;5054209;28;20052;-84
2023/06/21 06:18:01;;;;;;;19.98;15.75;;;588.80;2432.00;;;;;;5053958;28;20033;-84
2023/06/21 06:20:28;;;;;;;16.00;13.80;;;588.80;2432.00;;;;;;5053777;28;20025;-83
2023/06/21 06:22:54;;;;;;;16.90;15.10;;;589.00;2432.00;;;;;;5053919;28;20029;-85
2023/06/21 06:25:20;;;;;;;16.58;14.63;;;589.10;2432.00;;;;;;5053787;28;20025;-82
2023/06/21 06:27:46;;;;;;;18.77;15.38;;;589.10;2432.00;;;;;;5047328;28;20025;-84
2023/06/21 06:30:12;;;;;;;17.55;13.60;;;589.20;2432.00;;;;;;5034218;28;20033;-84
2023/06/21 06:32:38;;;;;;;15.50;13.95;;;589.10;2432.00;;;;;;5033676;28;20072;-86
2023/06/21 06:35:05;;;;;;;15.32;13.48;;;589.40;2432.00;;;;;;5034152;28;20053;-85
2023/06/21 06:37:30;;;;;;;14.98;13.48;;;589.30;2432.00;;;;;;5034101;28;20047;-85
2023/06/21 06:39:56;;;;;;;16.63;13.85;;;589.50;2432.00;;;;;;5033898;28;20533;-85
2023/06/21 06:42:22;;;;;;;17.88;13.55;;;589.70;2432.00;;;;;;5034199;28;20025;-86
2023/06/21 06:44:50;;;;;;;14.23;12.70;;;614.40;2432.00;;;;;;5033870;28;20029;-85
2023/06/21 06:47:16;;;;;;;17.83;12.85;;;614.50;2432.00;;;;;;5033283;28;20033;-87
2023/06/21 06:49:42;;;;;;;15.50;13.63;;;589.70;2432.00;;;;;;5033882;28;20029;-88
2023/06/21 06:52:09;;;;;;;13.70;12.40;;;614.40;2432.00;;;;;;5033749;28;20041;-89
2023/06/21 06:54:35;;;;;;;14.40;12.60;;;614.50;2432.00;;;;;;5033697;28;20032;-88
2023/06/21 06:57:01;;;;;;;15.48;12.70;;;614.70;2432.00;;;;;;5033974;28;20029;-89
2023/06/21 06:59:27;;;;;;;13.70;12.15;;;614.70;2432.00;;;;;;5033519;28;20397;-88
2023/06/21 07:01:52;;;;;;;13.65;12.35;;;614.70;2432.00;;;;;;5033314;28;20032;-85
2023/06/21 07:04:18;;;;;;;14.48;12.50;;;614.60;2432.00;;;;;;5033761;28;20025;-88
2023/06/21 07:06:44;;;;;;;17.38;12.82;;;614.60;2432.00;;;;;;5033302;28;20132;-88
2023/06/21 07:09:10;;;;;;;14.88;12.35;;;614.80;2432.00;;;;;;5033345;28;20120;-86
2023/06/21 07:11:36;;;;;;;14.05;12.55;;;615.00;2432.00;;;;;;5033209;28;20088;-83
2023/06/21 07:14:02;;;;;;;19.02;13.43;;;614.80;2432.00;;;;;;5033904;28;20029;-81
2023/06/21 07:16:34;;;;;;;14.27;12.50;;;615.10;2432.00;;;;;;5033736;28;20032;-84
2023/06/21 07:19:00;;;;;;;;;;;615.30;2432.00;;;;;;5042781;28;20025;-82
2023/06/21 07:21:27;;;;;;;14.45;12.88;;;640.20;2432.00;;;;;;5052292;28;19908;-81
2023/06/21 07:23:53;;;;;;;13.95;11.98;;;640.10;2432.00;;;;;;5053964;28;20025;-82
2023/06/21 07:26:19;;;;;;;14.07;12.55;;;;;;;;;;5052517;28;20464;-81
2023/06/21 07:28:45;;;;;;;13.82;12.45;;;640.50;2432.00;;;;;;5051973;28;20119;-81
2023/06/21 07:31:11;;;;;;;16.98;13.10;;;640.50;2432.00;;;;;;5052014;28;20072;-81
2023/06/21 07:33:37;;;;;;;17.38;14.80;;;640.70;2432.00;;;;;;5052349;28;20025;-82
2023/06/21 07:36:03;;;;;;;14.70;12.48;;;640.90;2432.00;;;;;;5053273;28;20147;-81
2023/06/21 07:38:29;;;;;;;16.13;12.77;;;640.90;2432.00;;;;;;5052192;28;20387;-83
2023/06/21 07:40:55;;;;;;;21.42;19.02;;;665.60;2432.00;;;;;;5051851;28;20025;-85
2023/06/21 07:43:21;;;;;;;19.55;16.50;;;;;;;;;;5051818;28;20025;-83
2023/06/21 07:45:47;;;;;;;19.88;16.52;;;665.90;2432.00;;;;;;5051592;28;20039;-82
2023/06/21 07:48:13;;;;;;;13.82;12.30;;;666.00;2432.00;;;;;;5052356;28;20028;-83
2023/06/21 07:50:40;;;;;;;19.27;15.45;;;665.90;2432.00;;;;;;5052559;28;20029;-82
2023/06/21 07:53:06;;;;;;;14.90;13.32;;;665.70;2432.00;;;;;;5052602;28;20025;-82
2023/06/21 07:55:31;;;;;;;21.10;18.88;;;665.70;2432.00;;;;;;5052399;28;20392;-82
2023/06/21 07:57:57;;;;;;;15.75;14.05;;;666.10;2432.00;;;;;;5059485;28;20004;-84
2023/06/21 08:00:23;;;;;;;15.07;11.60;;;666.30;2432.00;;;;;;5080386;28;20013;-83
2023/06/21 08:02:51;;;;;;;13.40;11.98;;;666.50;2432.00;;;;;;5064471;28;20460;-79
2023/06/21 08:05:17;;;;;;;14.77;12.65;;;691.30;2432.00;;;;;;5066531;28;20028;-83
2023/06/21 08:07:43;;;;;;;14.88;12.35;;;691.20;2432.00;;;;;;5059321;28;20053;-82
2023/06/21 08:10:10;;;;;;;14.05;12.57;;;691.50;2432.00;;;;;;5055395;28;20080;-81
2023/06/21 08:12:36;;;;;;;16.25;12.65;;;691.60;2432.00;;;;;;5056106;28;20029;-80
2023/06/21 08:15:02;;;;;;;15.73;13.30;;;691.70;2432.00;;;;;;5056190;28;20116;-79
2023/06/21 08:17:28;;;;;;;15.93;14.23;;;691.80;2432.00;;;;;;5055554;28;20028;-79
2023/06/21 08:19:54;;;;;;;12.70;11.40;;;691.90;2432.00;;;;;;5056289;28;20033;-82
2023/06/21 08:22:20;;;;;;;15.80;13.60;;;692.00;2432.00;;;;;;5055939;28;20055;-79
2023/06/21 08:24:47;;;;;;;16.77;14.95;;;716.80;2432.00;;;;;;5044278;28;20060;-82
2023/06/21 08:27:14;;;;;;;13.52;12.13;;;716.90;2432.00;;;;;;5035873;28;20060;-82
2023/06/21 08:29:40;;;;;;;13.10;11.80;;;691.90;2432.00;;;;;;5036757;28;20036;-83
2023/06/21 08:32:06;;;;;;;15.80;12.65;;;691.90;2432.00;;;;;;5035699;28;20524;-83
2023/06/21 08:34:32;;;;;;;14.07;12.15;;;692.10;2432.00;;;;;;5041552;28;20116;-82
2023/06/21 08:36:58;;;;;;;13.63;11.38;;;691.90;2432.00;;;;;;5055482;28;20025;-82
2023/06/21 08:39:24;;;;;;;14.55;13.05;;;691.80;2432.00;;;;;;5055354;28;20113;-81
2023/06/21 08:41:51;;;;;;;13.70;12.20;;;692.10;2432.00;;;;;;5055130;28;20076;-80
2023/06/21 08:44:17;;;;;;;14.43;12.93;;;692.10;2432.00;;;;;;5056002;28;20082;-81
2023/06/21 08:46:48;;;;;;;16.48;12.63;;;716.90;2432.00;;;;;;5054719;28;20025;-80
2023/06/21 08:49:18;;;;;;;14.73;12.05;;;717.10;2432.00;;;;;;5055133;28;20465;-83
2023/06/21 08:51:46;;;;;;;17.00;12.77;;;717.00;2432.00;;;;;;5052549;28;20619;-81
2023/06/21 08:54:13;;;;;;;14.18;12.60;;;717.30;2432.00;;;;;;5054609;28;20024;-83
2023/06/21 08:56:53;;;;;;;18.27;11.85;;;717.50;2432.00;;;;;;5055825;28;20025;-79
2023/06/21 08:59:24;;;;;;;13.93;12.57;;;717.70;2432.00;;;;;;5054340;28;20028;-80
2023/06/21 09:02:03;;;;;;;16.10;13.70;;;742.50;2432.00;;;;;;5054670;28;20021;-80
2023/06/21 09:04:32;;;;;;;15.52;13.45;;;742.70;2432.00;;;;;;5054151;28;20033;-84
2023/06/21 09:06:59;;;;;;;16.63;13.30;;;742.90;2432.00;;;;;;5054047;28;20057;-80
2023/06/21 09:09:26;;;;;;;15.80;12.32;;;743.00;2432.00;;;;;;5052872;28;20024;-80
2023/06/21 09:11:53;;;;;;;13.48;12.07;;;743.20;2432.00;;;;;;5054314;28;20029;-79
2023/06/21 09:14:21;;;;;;;14.90;12.18;;;743.30;2432.00;;;;;;5054090;28;20032;-82
2023/06/21 09:16:47;;;;;;;18.80;13.15;;;743.30;2432.00;;;;;;5056157;28;20051;-83
2023/06/21 09:19:15;;;;;;;18.90;15.25;;;768.10;2432.00;;;;;;5036778;28;20040;-81
2023/06/21 09:21:43;;;;;;;23.52;14.23;;;768.20;2432.00;;;;;;5034566;28;20482;-83
2023/06/21 09:24:08;;;;;;;18.27;12.40;;;768.40;2432.00;;;;;;5034716;28;20370;-87
2023/06/21 09:26:36;;;;;;;14.75;12.63;;;768.70;2432.00;;;;;;5034702;28;20037;-83
2023/06/21 09:29:02;;;;;;;15.35;12.18;;;768.90;2432.00;;;;;;5034477;28;20112;-82
2023/06/21 09:31:28;;;;;;;16.38;13.85;;;768.90;2355.20;;;;;;5034632;28;20405;-82
2023/06/21 09:33:55;;;;;;;15.98;12.65;;;793.60;2380.80;;;;;;5034364;28;20021;-82
2023/06/21 09:36:20;;;;;;;13.55;12.23;;;793.70;2380.80;;;;;;5034152;28;20033;-82
2023/06/21 09:38:46;;;;;;;15.68;13.48;;;793.90;2329.60;;;;;;5034453;28;20041;-82
2023/06/21 09:41:12;;;;;;;16.30;13.55;;;794.00;2355.20;;;;;;5033921;28;20025;-82
2023/06/21 09:43:45;;;;;;;13.70;12.23;;;794.00;2329.60;;;;;;5034382;28;20084;-83
2023/06/21 09:46:13;;;;;;;13.25;11.85;;;794.00;2304.00;;;;;;5035612;28;20032;-83
2023/06/21 09:48:39;;;;;;;13.73;12.15;;;793.80;2304.00;;;;;;5035350;28;20037;-82
2023/06/21 09:51:09;;;;;;;12.90;11.57;;;768.80;2176.00;;;;;;5034165;28;20025;-83
2023/06/21 09:53:36;;;;;;;17.30;12.68;;;768.70;2176.00;;;;;;5035568;28;20034;-84
2023/06/21 09:56:02;;;;;;;18.50;12.40;;;768.90;2201.60;;;;;;5033910;28;20473;-83
2023/06/21 09:58:33;;;;;;;16.10;14.50;;;768.70;2201.60;;;;;;5033711;28;20040;-82
2023/06/21 10:00:59;;;;;;;13.52;12.13;;;793.60;2252.80;;;;;;5034260;28;20120;-81
2023/06/21 10:03:25;;;;;;;12.48;11.25;;;794.00;2227.20;;;;;;5034815;28;20028;-82
2023/06/21 10:05:55;;;;;;;18.05;15.05;;;794.00;2227.20;;;;;;5035000;28;20116;-84
2023/06/21 10:08:24;;;;;;;17.00;15.25;;;794.50;2278.40;;;;;;5033821;28;20079;-83
2023/06/21 10:10:50;;;;;;;15.13;12.45;;;819.30;2278.40;;;;;;5033537;28;20055;-83
2023/06/21 10:13:16;;;;;;;14.18;12.70;;;819.30;2278.40;;;;;;5052150;28;20383;-83
2023/06/21 10:15:46;;;;;;;12.55;11.38;;;794.50;2227.20;;;;;;5053438;28;20033;-80
2023/06/21 10:18:12;;;;;;;12.20;11.00;;;794.40;2227.20;;;;;;5052295;28;20021;-82
2023/06/21 10:20:40;;;;;;;13.85;12.23;;;794.20;2227.20;;;;;;5052926;28;20055;-81
2023/06/21 10:23:08;;;;;;;14.00;11.05;;;794.50;2227.20;;;;;;5054492;28;20025;-83
2023/06/21 10:25:36;;;;;;;12.90;11.57;;;794.40;2227.20;;;;;;5054964;28;20036;-81
2023/06/21 10:28:05;;;;;;;13.50;12.15;;;819.20;2201.60;;;;;;5054548;28;20021;-81
2023/06/21 10:30:33;;;;;;;13.02;11.73;;;819.60;2201.60;;;;;;5050528;28;20069;-83
2023/06/21 10:33:02;;;;;;;12.90;11.60;;;819.50;2176.00;;;;;;5053354;28;20029;-78
2023/06/21 10:35:31;;;;;;;15.00;11.93;;;794.50;2176.00;;;;;;5054358;28;20389;-78
2023/06/21 10:38:48;;;;;;;13.55;11.95;;;819.20;2201.60;;;;;;5052570;28;20063;-78
2023/06/21 10:41:15;;;;;;;12.85;11.55;;;819.60;2176.00;;;;;;5015387;28;20048;-79
2023/06/21 10:43:41;;;;;;;13.68;12.32;;;819.70;2124.80;;;;;;5015408;28;20029;-78
2023/06/21 10:46:09;;;;;;;12.50;11.25;;;820.00;2150.40;;;;;;5031653;28;20029;-80
2023/06/21 10:48:36;;;;;;;15.65;11.88;;;819.90;2099.20;;;;;;5015392;28;20099;-79
2023/06/21 10:51:04;;;;;;;14.73;11.95;;;819.90;2124.80;;;;;;5014608;28;20426;-79
2023/06/21 10:53:33;;;;;;;17.85;13.55;;;844.90;2124.80;;;;;;5015313;28;20021;-82
2023/06/21 10:56:07;;;;;;;13.68;12.38;;;845.10;2150.40;;;;;;5015535;28;20038;-82
2023/06/21 10:58:33;;;;;;;12.32;11.13;;;845.30;2124.80;;;;;;5031088;28;20072;-79
2023/06/21 11:01:00;;;;;;;14.77;12.27;;;844.90;2124.80;;;;;;5015333;28;20076;-79
2023/06/21 11:03:27;;;;;;;13.15;11.88;;;845.20;2124.80;;;;;;5015111;28;20033;-81
2023/06/21 11:05:54;;;;;;;13.35;11.95;;;845.40;2099.20;;;;;;5031300;28;20089;-80
2023/06/21 11:08:32;;;;;;;12.65;11.38;;;845.70;2099.20;;;;;;5014940;28;20052;-80
2023/06/21 11:10:58;;;;;;;13.35;10.93;;;845.70;2073.60;;;;;;5015168;28;20386;-79
2023/06/21 11:13:37;;;;;;;12.13;10.75;;;845.70;2048.00;;;;;;5033407;28;20013;-78
2023/06/21 11:16:17;;;;;;;12.18;10.38;;;845.40;2022.40;;;;;;5063008;28;20064;-78
2023/06/21 11:18:47;;;;;;;12.05;10.90;;;845.20;2073.60;;;;;;5058125;28;20025;-77
2023/06/21 11:21:13;;;;;;;13.05;11.85;;;845.50;2073.60;;;;;;5053416;28;20464;-78
2023/06/21 11:23:51;;;;;;;12.05;10.70;;;845.70;2124.80;;;;;;5052414;28;20025;-80
2023/06/21 11:26:18;;;;;;;12.70;11.48;;;845.60;2048.00;;;;;;5052050;28;20044;-77
2023/06/21 11:28:48;;;;;;;14.70;13.20;;;845.70;2048.00;;;;;;5052394;28;20064;-78
2023/06/21 11:31:19;;;;;;;16.73;14.93;;;870.50;2073.60;;;;;;5056217;28;20362;-79
2023/06/21 11:33:46;;;;;;;15.40;13.13;;;870.40;2048.00;;;;;;5061236;28;20033;-79
2023/06/21 11:36:13;;;;;;;14.57;12.75;;;870.50;2073.60;;;;;;5062558;28;20029;-82
2023/06/21 11:38:49;;;;;;;17.50;13.40;;;870.80;2048.00;;;;;;5061409;28;20029;-80
2023/06/21 11:41:44;;;;;;;15.02;13.52;;;870.90;2022.40;;;;;;5060455;28;20025;-80
2023/06/21 11:44:19;;;;;;;12.60;11.00;;;871.10;2048.00;;;;;;5054263;28;20033;-79
2023/06/21 11:46:46;;;;;;;12.50;11.20;;;870.70;1996.80;;;;;;5053524;28;20025;-81
2023/06/21 11:49:12;;;;;;;11.70;10.50;;;845.70;2022.40;;;;;;5051862;28;20033;-79
2023/06/21 11:52:02;;;;;;;14.20;11.75;;;844.80;2073.60;;;;;;5052214;28;20029;-80
2023/06/21 11:54:35;;;;;;;13.00;11.60;;;820.00;2073.60;;;;;;5052042;28;20050;-81
2023/06/21 11:57:05;;;;;;;14.85;12.55;;;844.80;2099.20;;;;;;5053416;28;20032;-79
2023/06/21 11:59:33;;;;;;;12.93;11.18;;;845.30;2150.40;;;;;;5053409;28;20029;-81
2023/06/21 12:02:22;;;;;;;13.70;11.18;;;845.60;2048.00;;;;;;5052750;28;20032;-82
2023/06/21 12:04:50;;;;;;;14.95;13.48;;;870.60;2073.60;;;;;;5052046;28;20386;-79